sensor_id;sensor_type;location;lat;lon;timestamp;P1;durP1;ratioP1;P2;durP2;ratioP2
3718;SDS011;1875;52.492;6.860;2024-02-23T00:01:04;2.10;;;1.10;;
3718;SDS011;1875;52.492;6.860;2024-02-23T00:03:33;3.33;;;0.80;;
3718;SDS011;1875;52.492;6.860;2024-02-23T00:06:01;1.83;;;0.73;;
3718;SDS011;1875;52.492;6.860;2024-02-23T00:08:29;2.00;;;0.85;;
3718;SDS011;1875;52.492;6.860;2024-02-23T00:10:57;2.92;;;0.70;;
3718;SDS011;1875;52.492;6.860;2024-02-23T00:13:25;1.05;;;0.55;;
3718;SDS011;1875;52.492;6.860;2024-02-23T00:15:53;2.53;;;0.63;;
3718;SDS011;1875;52.492;6.860;2024-02-23T00:18:22;1.17;;;0.60;;
3718;SDS011;1875;52.492;6.860;2024-02-23T00:20:50;2.53;;;0.65;;
3718;SDS011;1875;52.492;6.860;2024-02-23T00:23:17;1.60;;;0.50;;
3718;SDS011;1875;52.492;6.860;2024-02-23T00:25:46;2.15;;;0.82;;
3718;SDS011;1875;52.492;6.860;2024-02-23T00:28:14;0.68;;;0.50;;
3718;SDS011;1875;52.492;6.860;2024-02-23T00:30:42;3.42;;;1.08;;
3718;SDS011;1875;52.492;6.860;2024-02-23T00:33:09;1.63;;;0.90;;
3718;SDS011;1875;52.492;6.860;2024-02-23T00:35:39;1.52;;;0.93;;
3718;SDS011;1875;52.492;6.860;2024-02-23T00:38:06;1.58;;;0.70;;
3718;SDS011;1875;52.492;6.860;2024-02-23T00:40:35;1.05;;;0.50;;
3718;SDS011;1875;52.492;6.860;2024-02-23T00:43:03;1.15;;;0.40;;
3718;SDS011;1875;52.492;6.860;2024-02-23T00:45:31;1.80;;;0.68;;
3718;SDS011;1875;52.492;6.860;2024-02-23T00:47:59;1.38;;;0.43;;
3718;SDS011;1875;52.492;6.860;2024-02-23T00:50:27;3.75;;;0.70;;
3718;SDS011;1875;52.492;6.860;2024-02-23T00:52:56;2.10;;;0.68;;
3718;SDS011;1875;52.492;6.860;2024-02-23T00:55:24;1.83;;;0.75;;
3718;SDS011;1875;52.492;6.860;2024-02-23T00:57:53;1.45;;;1.25;;
3718;SDS011;1875;52.492;6.860;2024-02-23T01:00:21;4.75;;;1.17;;
3718;SDS011;1875;52.492;6.860;2024-02-23T01:02:50;2.03;;;0.93;;
3718;SDS011;1875;52.492;6.860;2024-02-23T01:05:17;4.40;;;1.10;;
3718;SDS011;1875;52.492;6.860;2024-02-23T01:07:45;3.80;;;0.93;;
3718;SDS011;1875;52.492;6.860;2024-02-23T01:10:15;4.13;;;1.08;;
3718;SDS011;1875;52.492;6.860;2024-02-23T01:12:43;3.55;;;1.42;;
3718;SDS011;1875;52.492;6.860;2024-02-23T01:15:11;2.25;;;1.00;;
3718;SDS011;1875;52.492;6.860;2024-02-23T01:17:38;2.83;;;1.00;;
3718;SDS011;1875;52.492;6.860;2024-02-23T01:20:07;1.63;;;0.80;;
3718;SDS011;1875;52.492;6.860;2024-02-23T01:22:36;1.80;;;1.38;;
3718;SDS011;1875;52.492;6.860;2024-02-23T01:25:04;4.70;;;1.30;;
3718;SDS011;1875;52.492;6.860;2024-02-23T01:27:33;4.72;;;1.08;;
3718;SDS011;1875;52.492;6.860;2024-02-23T01:30:01;6.25;;;1.10;;
3718;SDS011;1875;52.492;6.860;2024-02-23T01:32:29;3.30;;;1.10;;
3718;SDS011;1875;52.492;6.860;2024-02-23T01:34:57;1.48;;;0.30;;
3718;SDS011;1875;52.492;6.860;2024-02-23T01:37:25;5.88;;;1.35;;
3718;SDS011;1875;52.492;6.860;2024-02-23T01:39:53;3.85;;;1.30;;
3718;SDS011;1875;52.492;6.860;2024-02-23T01:42:21;1.35;;;0.82;;
3718;SDS011;1875;52.492;6.860;2024-02-23T01:44:51;4.15;;;1.60;;
3718;SDS011;1875;52.492;6.860;2024-02-23T01:47:19;4.00;;;2.08;;
3718;SDS011;1875;52.492;6.860;2024-02-23T01:49:47;7.07;;;1.73;;
3718;SDS011;1875;52.492;6.860;2024-02-23T01:52:15;2.05;;;0.85;;
3718;SDS011;1875;52.492;6.860;2024-02-23T01:54:43;3.58;;;1.23;;
3718;SDS011;1875;52.492;6.860;2024-02-23T01:57:11;1.63;;;0.82;;
3718;SDS011;1875;52.492;6.860;2024-02-23T02:00:00;2.80;;;1.58;;
3718;SDS011;1875;52.492;6.860;2024-02-23T02:02:30;2.63;;;1.35;;
3718;SDS011;1875;52.492;6.860;2024-02-23T02:04:58;8.07;;;2.72;;
3718;SDS011;1875;52.492;6.860;2024-02-23T02:07:26;4.97;;;2.08;;
3718;SDS011;1875;52.492;6.860;2024-02-23T02:09:54;5.55;;;2.75;;
3718;SDS011;1875;52.492;6.860;2024-02-23T02:12:28;5.88;;;1.85;;
3718;SDS011;1875;52.492;6.860;2024-02-23T02:14:56;3.22;;;2.00;;
3718;SDS011;1875;52.492;6.860;2024-02-23T02:17:25;4.55;;;2.20;;
3718;SDS011;1875;52.492;6.860;2024-02-23T02:19:53;4.25;;;1.88;;
3718;SDS011;1875;52.492;6.860;2024-02-23T02:22:21;5.82;;;2.47;;
3718;SDS011;1875;52.492;6.860;2024-02-23T02:24:49;4.72;;;1.65;;
3718;SDS011;1875;52.492;6.860;2024-02-23T02:27:16;10.02;;;1.25;;
3718;SDS011;1875;52.492;6.860;2024-02-23T02:29:44;2.25;;;0.98;;
3718;SDS011;1875;52.492;6.860;2024-02-23T02:32:12;4.82;;;1.40;;
3718;SDS011;1875;52.492;6.860;2024-02-23T02:34:41;5.13;;;2.40;;
3718;SDS011;1875;52.492;6.860;2024-02-23T02:37:09;2.95;;;1.02;;
3718;SDS011;1875;52.492;6.860;2024-02-23T02:39:37;8.00;;;1.50;;
3718;SDS011;1875;52.492;6.860;2024-02-23T02:42:05;2.95;;;1.60;;
3718;SDS011;1875;52.492;6.860;2024-02-23T02:44:33;3.22;;;1.50;;
3718;SDS011;1875;52.492;6.860;2024-02-23T02:47:01;6.32;;;1.20;;
3718;SDS011;1875;52.492;6.860;2024-02-23T02:49:29;7.35;;;1.63;;
3718;SDS011;1875;52.492;6.860;2024-02-23T02:51:58;2.22;;;0.98;;
3718;SDS011;1875;52.492;6.860;2024-02-23T02:54:26;2.30;;;0.50;;
3718;SDS011;1875;52.492;6.860;2024-02-23T02:56:54;4.55;;;0.68;;
3718;SDS011;1875;52.492;6.860;2024-02-23T02:59:22;0.95;;;0.50;;
3718;SDS011;1875;52.492;6.860;2024-02-23T03:01:54;2.05;;;0.65;;
3718;SDS011;1875;52.492;6.860;2024-02-23T03:04:23;1.05;;;0.30;;
3718;SDS011;1875;52.492;6.860;2024-02-23T03:06:51;2.42;;;0.70;;
3718;SDS011;1875;52.492;6.860;2024-02-23T03:09:20;1.10;;;0.88;;
3718;SDS011;1875;52.492;6.860;2024-02-23T03:11:48;1.92;;;0.55;;
3718;SDS011;1875;52.492;6.860;2024-02-23T03:14:16;2.17;;;0.63;;
3718;SDS011;1875;52.492;6.860;2024-02-23T03:16:45;1.92;;;0.98;;
3718;SDS011;1875;52.492;6.860;2024-02-23T03:19:14;0.93;;;0.45;;
3718;SDS011;1875;52.492;6.860;2024-02-23T03:21:42;3.05;;;1.38;;
3718;SDS011;1875;52.492;6.860;2024-02-23T03:24:10;2.03;;;1.33;;
3718;SDS011;1875;52.492;6.860;2024-02-23T03:26:39;3.10;;;1.70;;
3718;SDS011;1875;52.492;6.860;2024-02-23T03:29:07;5.75;;;2.40;;
3718;SDS011;1875;52.492;6.860;2024-02-23T03:31:35;4.60;;;2.60;;
3718;SDS011;1875;52.492;6.860;2024-02-23T03:34:03;4.75;;;2.80;;
3718;SDS011;1875;52.492;6.860;2024-02-23T03:36:31;5.43;;;3.08;;
3718;SDS011;1875;52.492;6.860;2024-02-23T03:38:58;6.40;;;3.42;;
3718;SDS011;1875;52.492;6.860;2024-02-23T03:41:26;11.05;;;4.55;;
3718;SDS011;1875;52.492;6.860;2024-02-23T03:43:56;6.65;;;3.15;;
3718;SDS011;1875;52.492;6.860;2024-02-23T03:46:25;7.80;;;3.75;;
3718;SDS011;1875;52.492;6.860;2024-02-23T03:48:53;7.05;;;2.97;;
3718;SDS011;1875;52.492;6.860;2024-02-23T03:51:20;5.10;;;3.08;;
3718;SDS011;1875;52.492;6.860;2024-02-23T03:53:48;7.50;;;3.20;;
3718;SDS011;1875;52.492;6.860;2024-02-23T03:56:16;7.15;;;3.75;;
3718;SDS011;1875;52.492;6.860;2024-02-23T03:58:44;9.25;;;3.65;;
3718;SDS011;1875;52.492;6.860;2024-02-23T04:01:13;6.72;;;3.83;;
3718;SDS011;1875;52.492;6.860;2024-02-23T04:03:41;5.85;;;2.90;;
3718;SDS011;1875;52.492;6.860;2024-02-23T04:06:09;4.00;;;2.00;;
3718;SDS011;1875;52.492;6.860;2024-02-23T04:08:37;7.00;;;2.70;;
3718;SDS011;1875;52.492;6.860;2024-02-23T04:11:05;6.82;;;2.65;;
3718;SDS011;1875;52.492;6.860;2024-02-23T04:13:33;12.63;;;2.55;;
3718;SDS011;1875;52.492;6.860;2024-02-23T04:16:01;4.75;;;2.05;;
3718;SDS011;1875;52.492;6.860;2024-02-23T04:18:30;5.40;;;2.17;;
3718;SDS011;1875;52.492;6.860;2024-02-23T04:20:58;6.53;;;2.65;;
3718;SDS011;1875;52.492;6.860;2024-02-23T04:23:26;8.05;;;2.58;;
3718;SDS011;1875;52.492;6.860;2024-02-23T04:25:54;7.82;;;2.50;;
3718;SDS011;1875;52.492;6.860;2024-02-23T04:28:22;4.22;;;1.90;;
3718;SDS011;1875;52.492;6.860;2024-02-23T04:30:50;11.48;;;2.60;;
3718;SDS011;1875;52.492;6.860;2024-02-23T04:33:17;6.60;;;2.08;;
3718;SDS011;1875;52.492;6.860;2024-02-23T04:35:47;6.78;;;2.22;;
3718;SDS011;1875;52.492;6.860;2024-02-23T04:38:14;5.32;;;2.38;;
3718;SDS011;1875;52.492;6.860;2024-02-23T04:40:42;4.13;;;1.90;;
3718;SDS011;1875;52.492;6.860;2024-02-23T04:43:10;2.97;;;1.40;;
3718;SDS011;1875;52.492;6.860;2024-02-23T04:45:38;5.53;;;1.23;;
3718;SDS011;1875;52.492;6.860;2024-02-23T04:48:06;5.63;;;1.75;;
3718;SDS011;1875;52.492;6.860;2024-02-23T04:50:34;6.50;;;1.77;;
3718;SDS011;1875;52.492;6.860;2024-02-23T04:53:04;7.80;;;1.73;;
3718;SDS011;1875;52.492;6.860;2024-02-23T04:55:31;6.53;;;2.83;;
3718;SDS011;1875;52.492;6.860;2024-02-23T04:57:59;4.78;;;1.42;;
3718;SDS011;1875;52.492;6.860;2024-02-23T05:00:27;3.25;;;1.50;;
3718;SDS011;1875;52.492;6.860;2024-02-23T05:03:00;7.93;;;1.25;;
3718;SDS011;1875;52.492;6.860;2024-02-23T05:05:30;5.85;;;1.85;;
3718;SDS011;1875;52.492;6.860;2024-02-23T05:07:58;5.57;;;1.77;;
3718;SDS011;1875;52.492;6.860;2024-02-23T05:10:28;3.85;;;1.45;;
3718;SDS011;1875;52.492;6.860;2024-02-23T05:12:55;3.75;;;1.67;;
3718;SDS011;1875;52.492;6.860;2024-02-23T05:15:23;11.20;;;3.13;;
3718;SDS011;1875;52.492;6.860;2024-02-23T05:17:51;2.55;;;1.10;;
3718;SDS011;1875;52.492;6.860;2024-02-23T05:20:19;7.63;;;2.20;;
3718;SDS011;1875;52.492;6.860;2024-02-23T05:22:47;9.65;;;1.65;;
3718;SDS011;1875;52.492;6.860;2024-02-23T05:25:15;4.43;;;1.50;;
3718;SDS011;1875;52.492;6.860;2024-02-23T05:27:44;4.82;;;1.90;;
3718;SDS011;1875;52.492;6.860;2024-02-23T05:30:12;7.30;;;1.38;;
3718;SDS011;1875;52.492;6.860;2024-02-23T05:32:40;2.90;;;1.17;;
3718;SDS011;1875;52.492;6.860;2024-02-23T05:35:09;5.53;;;1.20;;
3718;SDS011;1875;52.492;6.860;2024-02-23T05:37:37;3.95;;;1.42;;
3718;SDS011;1875;52.492;6.860;2024-02-23T05:40:05;4.63;;;1.60;;
3718;SDS011;1875;52.492;6.860;2024-02-23T05:42:37;5.82;;;2.17;;
3718;SDS011;1875;52.492;6.860;2024-02-23T05:45:07;4.00;;;1.23;;
3718;SDS011;1875;52.492;6.860;2024-02-23T05:47:36;7.35;;;1.75;;
3718;SDS011;1875;52.492;6.860;2024-02-23T05:50:04;6.82;;;1.65;;
3718;SDS011;1875;52.492;6.860;2024-02-23T05:52:33;7.25;;;1.90;;
3718;SDS011;1875;52.492;6.860;2024-02-23T05:55:02;7.65;;;2.03;;
3718;SDS011;1875;52.492;6.860;2024-02-23T05:57:30;4.65;;;1.83;;
3718;SDS011;1875;52.492;6.860;2024-02-23T05:59:58;4.40;;;1.85;;
3718;SDS011;1875;52.492;6.860;2024-02-23T06:02:27;10.32;;;2.20;;
3718;SDS011;1875;52.492;6.860;2024-02-23T06:04:55;7.30;;;2.38;;
3718;SDS011;1875;52.492;6.860;2024-02-23T06:07:23;6.13;;;2.25;;
3718;SDS011;1875;52.492;6.860;2024-02-23T06:09:55;7.15;;;2.42;;
3718;SDS011;1875;52.492;6.860;2024-02-23T06:12:23;1.73;;;0.95;;
3718;SDS011;1875;52.492;6.860;2024-02-23T06:14:53;4.18;;;1.52;;
3718;SDS011;1875;52.492;6.860;2024-02-23T06:17:21;6.18;;;2.00;;
3718;SDS011;1875;52.492;6.860;2024-02-23T06:19:51;13.63;;;1.42;;
3718;SDS011;1875;52.492;6.860;2024-02-23T06:22:20;4.30;;;1.27;;
3718;SDS011;1875;52.492;6.860;2024-02-23T06:24:48;5.20;;;1.83;;
3718;SDS011;1875;52.492;6.860;2024-02-23T06:27:16;10.05;;;2.30;;
3718;SDS011;1875;52.492;6.860;2024-02-23T06:29:44;10.60;;;2.20;;
3718;SDS011;1875;52.492;6.860;2024-02-23T06:32:12;3.65;;;1.48;;
3718;SDS011;1875;52.492;6.860;2024-02-23T06:34:39;4.53;;;1.20;;
3718;SDS011;1875;52.492;6.860;2024-02-23T06:37:09;6.22;;;2.28;;
3718;SDS011;1875;52.492;6.860;2024-02-23T06:39:36;8.38;;;2.55;;
3718;SDS011;1875;52.492;6.860;2024-02-23T06:42:04;1.65;;;1.20;;
3718;SDS011;1875;52.492;6.860;2024-02-23T06:44:32;6.95;;;3.45;;
3718;SDS011;1875;52.492;6.860;2024-02-23T06:47:00;3.30;;;1.35;;
3718;SDS011;1875;52.492;6.860;2024-02-23T06:49:28;5.32;;;1.75;;
3718;SDS011;1875;52.492;6.860;2024-02-23T06:51:56;3.95;;;1.65;;
3718;SDS011;1875;52.492;6.860;2024-02-23T06:54:25;3.90;;;2.15;;
3718;SDS011;1875;52.492;6.860;2024-02-23T06:56:53;7.35;;;2.55;;
3718;SDS011;1875;52.492;6.860;2024-02-23T06:59:21;3.67;;;1.88;;
3718;SDS011;1875;52.492;6.860;2024-02-23T07:04:18;4.30;;;2.33;;
3718;SDS011;1875;52.492;6.860;2024-02-23T07:06:46;5.93;;;2.22;;
3718;SDS011;1875;52.492;6.860;2024-02-23T07:09:14;5.05;;;2.40;;
3718;SDS011;1875;52.492;6.860;2024-02-23T07:11:43;11.15;;;3.05;;
3718;SDS011;1875;52.492;6.860;2024-02-23T07:14:12;3.38;;;1.33;;
3718;SDS011;1875;52.492;6.860;2024-02-23T07:16:40;4.00;;;1.50;;
3718;SDS011;1875;52.492;6.860;2024-02-23T07:19:08;4.43;;;1.08;;
3718;SDS011;1875;52.492;6.860;2024-02-23T07:21:37;6.15;;;1.63;;
3718;SDS011;1875;52.492;6.860;2024-02-23T07:24:09;6.25;;;3.00;;
3718;SDS011;1875;52.492;6.860;2024-02-23T07:26:36;3.25;;;1.63;;
3718;SDS011;1875;52.492;6.860;2024-02-23T07:29:06;2.60;;;1.48;;
3718;SDS011;1875;52.492;6.860;2024-02-23T07:31:34;7.72;;;1.75;;
3718;SDS011;1875;52.492;6.860;2024-02-23T07:34:02;7.47;;;2.13;;
3718;SDS011;1875;52.492;6.860;2024-02-23T07:36:30;3.20;;;0.55;;
3718;SDS011;1875;52.492;6.860;2024-02-23T07:38:58;4.03;;;1.38;;
3718;SDS011;1875;52.492;6.860;2024-02-23T07:41:26;2.38;;;0.90;;
3718;SDS011;1875;52.492;6.860;2024-02-23T07:43:54;2.75;;;1.02;;
3718;SDS011;1875;52.492;6.860;2024-02-23T07:46:23;3.20;;;1.30;;
3718;SDS011;1875;52.492;6.860;2024-02-23T07:48:54;6.78;;;1.38;;
3718;SDS011;1875;52.492;6.860;2024-02-23T07:51:22;5.85;;;1.33;;
3718;SDS011;1875;52.492;6.860;2024-02-23T07:53:50;4.95;;;1.50;;
3718;SDS011;1875;52.492;6.860;2024-02-23T07:56:18;3.30;;;0.77;;
3718;SDS011;1875;52.492;6.860;2024-02-23T07:58:46;2.38;;;0.88;;
3718;SDS011;1875;52.492;6.860;2024-02-23T08:01:14;3.40;;;1.00;;
3718;SDS011;1875;52.492;6.860;2024-02-23T08:03:43;2.30;;;1.00;;
3718;SDS011;1875;52.492;6.860;2024-02-23T08:06:11;2.55;;;0.90;;
3718;SDS011;1875;52.492;6.860;2024-02-23T08:08:39;2.97;;;1.10;;
3718;SDS011;1875;52.492;6.860;2024-02-23T08:11:07;6.97;;;1.27;;
3718;SDS011;1875;52.492;6.860;2024-02-23T08:13:35;6.63;;;1.08;;
3718;SDS011;1875;52.492;6.860;2024-02-23T08:16:03;2.17;;;0.75;;
3718;SDS011;1875;52.492;6.860;2024-02-23T08:18:32;5.30;;;1.52;;
3718;SDS011;1875;52.492;6.860;2024-02-23T08:21:01;2.13;;;0.82;;
3718;SDS011;1875;52.492;6.860;2024-02-23T08:23:30;2.95;;;1.05;;
3718;SDS011;1875;52.492;6.860;2024-02-23T08:25:58;6.50;;;1.10;;
3718;SDS011;1875;52.492;6.860;2024-02-23T08:28:27;2.80;;;1.17;;
3718;SDS011;1875;52.492;6.860;2024-02-23T08:30:55;3.78;;;1.05;;
3718;SDS011;1875;52.492;6.860;2024-02-23T08:33:22;2.83;;;0.98;;
3718;SDS011;1875;52.492;6.860;2024-02-23T08:35:50;7.03;;;1.45;;
3718;SDS011;1875;52.492;6.860;2024-02-23T08:38:19;6.30;;;1.23;;
3718;SDS011;1875;52.492;6.860;2024-02-23T08:40:47;7.43;;;1.20;;
3718;SDS011;1875;52.492;6.860;2024-02-23T08:43:16;7.90;;;2.63;;
3718;SDS011;1875;52.492;6.860;2024-02-23T08:45:44;4.05;;;1.15;;
3718;SDS011;1875;52.492;6.860;2024-02-23T08:48:12;4.18;;;1.27;;
3718;SDS011;1875;52.492;6.860;2024-02-23T08:53:09;2.47;;;1.27;;
3718;SDS011;1875;52.492;6.860;2024-02-23T08:55:39;3.22;;;1.10;;
3718;SDS011;1875;52.492;6.860;2024-02-23T08:58:06;4.15;;;1.05;;
3718;SDS011;1875;52.492;6.860;2024-02-23T09:00:34;3.70;;;1.05;;
3718;SDS011;1875;52.492;6.860;2024-02-23T09:03:03;2.28;;;1.25;;
3718;SDS011;1875;52.492;6.860;2024-02-23T09:05:31;8.63;;;1.23;;
3718;SDS011;1875;52.492;6.860;2024-02-23T09:07:59;6.72;;;1.10;;
3718;SDS011;1875;52.492;6.860;2024-02-23T09:10:27;3.85;;;1.15;;
3718;SDS011;1875;52.492;6.860;2024-02-23T09:12:56;3.38;;;1.20;;
3718;SDS011;1875;52.492;6.860;2024-02-23T09:15:24;7.85;;;1.52;;
3718;SDS011;1875;52.492;6.860;2024-02-23T09:17:52;4.00;;;0.70;;
3718;SDS011;1875;52.492;6.860;2024-02-23T09:20:20;1.42;;;0.75;;
3718;SDS011;1875;52.492;6.860;2024-02-23T09:22:49;0.60;;;0.40;;
3718;SDS011;1875;52.492;6.860;2024-02-23T09:25:18;7.28;;;1.80;;
3718;SDS011;1875;52.492;6.860;2024-02-23T09:27:45;4.95;;;1.25;;
3718;SDS011;1875;52.492;6.860;2024-02-23T09:30:15;4.00;;;0.98;;
3718;SDS011;1875;52.492;6.860;2024-02-23T09:32:42;3.25;;;0.77;;
3718;SDS011;1875;52.492;6.860;2024-02-23T09:35:11;3.08;;;0.77;;
3718;SDS011;1875;52.492;6.860;2024-02-23T09:37:39;2.50;;;0.65;;
3718;SDS011;1875;52.492;6.860;2024-02-23T09:40:07;5.28;;;1.30;;
3718;SDS011;1875;52.492;6.860;2024-02-23T09:42:35;1.55;;;0.80;;
3718;SDS011;1875;52.492;6.860;2024-02-23T09:45:05;6.75;;;1.38;;
3718;SDS011;1875;52.492;6.860;2024-02-23T09:47:35;5.63;;;0.90;;
3718;SDS011;1875;52.492;6.860;2024-02-23T09:50:03;2.42;;;0.80;;
3718;SDS011;1875;52.492;6.860;2024-02-23T09:52:32;3.85;;;1.10;;
3718;SDS011;1875;52.492;6.860;2024-02-23T09:55:00;3.80;;;0.65;;
3718;SDS011;1875;52.492;6.860;2024-02-23T09:57:30;4.22;;;1.00;;
3718;SDS011;1875;52.492;6.860;2024-02-23T09:59:58;8.30;;;1.73;;
3718;SDS011;1875;52.492;6.860;2024-02-23T10:02:25;7.38;;;1.02;;
3718;SDS011;1875;52.492;6.860;2024-02-23T10:04:56;6.68;;;2.08;;
3718;SDS011;1875;52.492;6.860;2024-02-23T10:07:24;2.90;;;1.10;;
3718;SDS011;1875;52.492;6.860;2024-02-23T10:09:52;3.78;;;1.83;;
3718;SDS011;1875;52.492;6.860;2024-02-23T10:12:21;5.78;;;1.60;;
3718;SDS011;1875;52.492;6.860;2024-02-23T10:14:50;3.13;;;1.10;;
3718;SDS011;1875;52.492;6.860;2024-02-23T10:17:18;2.42;;;1.30;;
3718;SDS011;1875;52.492;6.860;2024-02-23T10:19:46;3.05;;;0.90;;
3718;SDS011;1875;52.492;6.860;2024-02-23T10:22:15;3.75;;;1.80;;
3718;SDS011;1875;52.492;6.860;2024-02-23T10:24:43;2.35;;;1.13;;
3718;SDS011;1875;52.492;6.860;2024-02-23T10:27:11;5.20;;;1.33;;
3718;SDS011;1875;52.492;6.860;2024-02-23T10:29:39;6.13;;;0.85;;
3718;SDS011;1875;52.492;6.860;2024-02-23T10:32:07;3.97;;;1.27;;
3718;SDS011;1875;52.492;6.860;2024-02-23T10:34:37;10.00;;;2.28;;
3718;SDS011;1875;52.492;6.860;2024-02-23T10:37:10;2.97;;;1.35;;
3718;SDS011;1875;52.492;6.860;2024-02-23T10:39:39;5.45;;;1.13;;
3718;SDS011;1875;52.492;6.860;2024-02-23T10:42:08;3.05;;;1.00;;
3718;SDS011;1875;52.492;6.860;2024-02-23T10:44:36;3.30;;;1.00;;
3718;SDS011;1875;52.492;6.860;2024-02-23T10:47:04;2.97;;;1.40;;
3718;SDS011;1875;52.492;6.860;2024-02-23T10:49:32;7.80;;;2.30;;
3718;SDS011;1875;52.492;6.860;2024-02-23T10:52:01;3.65;;;1.05;;
3718;SDS011;1875;52.492;6.860;2024-02-23T10:54:29;3.58;;;0.95;;
3718;SDS011;1875;52.492;6.860;2024-02-23T10:57:00;3.72;;;1.08;;
3718;SDS011;1875;52.492;6.860;2024-02-23T10:59:29;3.03;;;1.80;;
3718;SDS011;1875;52.492;6.860;2024-02-23T11:01:57;5.07;;;1.10;;
3718;SDS011;1875;52.492;6.860;2024-02-23T11:04:27;10.60;;;2.10;;
3718;SDS011;1875;52.492;6.860;2024-02-23T11:06:55;4.20;;;2.17;;
3718;SDS011;1875;52.492;6.860;2024-02-23T11:09:25;4.93;;;1.15;;
3718;SDS011;1875;52.492;6.860;2024-02-23T11:11:53;4.78;;;1.50;;
3718;SDS011;1875;52.492;6.860;2024-02-23T11:14:32;2.33;;;0.90;;
3718;SDS011;1875;52.492;6.860;2024-02-23T11:17:03;4.35;;;1.90;;
3718;SDS011;1875;52.492;6.860;2024-02-23T11:20:04;5.10;;;2.10;;
3718;SDS011;1875;52.492;6.860;2024-02-23T11:22:34;5.07;;;1.10;;
3718;SDS011;1875;52.492;6.860;2024-02-23T11:25:05;4.53;;;0.80;;
3718;SDS011;1875;52.492;6.860;2024-02-23T11:27:35;4.05;;;1.45;;
3718;SDS011;1875;52.492;6.860;2024-02-23T11:30:04;3.47;;;0.90;;
3718;SDS011;1875;52.492;6.860;2024-02-23T11:32:36;7.50;;;1.30;;
3718;SDS011;1875;52.492;6.860;2024-02-23T11:35:08;3.15;;;1.15;;
3718;SDS011;1875;52.492;6.860;2024-02-23T11:37:45;3.72;;;1.05;;
3718;SDS011;1875;52.492;6.860;2024-02-23T11:42:41;4.07;;;1.55;;
3718;SDS011;1875;52.492;6.860;2024-02-23T11:45:10;1.88;;;0.75;;
3718;SDS011;1875;52.492;6.860;2024-02-23T11:47:38;4.90;;;1.65;;
3718;SDS011;1875;52.492;6.860;2024-02-23T11:50:08;3.50;;;1.38;;
3718;SDS011;1875;52.492;6.860;2024-02-23T11:52:37;5.40;;;1.02;;
3718;SDS011;1875;52.492;6.860;2024-02-23T11:55:05;4.15;;;1.35;;
3718;SDS011;1875;52.492;6.860;2024-02-23T11:57:35;3.38;;;0.65;;
3718;SDS011;1875;52.492;6.860;2024-02-23T12:00:13;4.65;;;2.53;;
3718;SDS011;1875;52.492;6.860;2024-02-23T12:02:43;7.18;;;1.67;;
3718;SDS011;1875;52.492;6.860;2024-02-23T12:05:12;2.85;;;0.73;;
3718;SDS011;1875;52.492;6.860;2024-02-23T12:07:40;3.35;;;1.25;;
3718;SDS011;1875;52.492;6.860;2024-02-23T12:10:12;4.70;;;1.10;;
3718;SDS011;1875;52.492;6.860;2024-02-23T12:12:40;6.10;;;2.13;;
3718;SDS011;1875;52.492;6.860;2024-02-23T12:15:08;4.40;;;1.13;;
3718;SDS011;1875;52.492;6.860;2024-02-23T12:17:36;3.78;;;1.02;;
3718;SDS011;1875;52.492;6.860;2024-02-23T12:20:05;5.78;;;1.00;;
3718;SDS011;1875;52.492;6.860;2024-02-23T12:22:36;5.00;;;1.80;;
3718;SDS011;1875;52.492;6.860;2024-02-23T12:25:05;4.63;;;1.60;;
3718;SDS011;1875;52.492;6.860;2024-02-23T12:27:34;2.97;;;1.30;;
3718;SDS011;1875;52.492;6.860;2024-02-23T12:30:02;3.92;;;2.15;;
3718;SDS011;1875;52.492;6.860;2024-02-23T12:32:30;6.10;;;2.00;;
3718;SDS011;1875;52.492;6.860;2024-02-23T12:34:58;5.15;;;1.90;;
3718;SDS011;1875;52.492;6.860;2024-02-23T12:37:26;5.20;;;2.85;;
3718;SDS011;1875;52.492;6.860;2024-02-23T12:39:55;8.93;;;2.70;;
3718;SDS011;1875;52.492;6.860;2024-02-23T12:42:23;4.88;;;2.97;;
3718;SDS011;1875;52.492;6.860;2024-02-23T12:44:51;7.60;;;1.52;;
3718;SDS011;1875;52.492;6.860;2024-02-23T12:47:19;10.27;;;2.13;;
3718;SDS011;1875;52.492;6.860;2024-02-23T12:49:47;8.65;;;1.85;;
3718;SDS011;1875;52.492;6.860;2024-02-23T12:52:15;3.25;;;1.27;;
3718;SDS011;1875;52.492;6.860;2024-02-23T12:54:42;4.78;;;1.60;;
3718;SDS011;1875;52.492;6.860;2024-02-23T12:57:12;8.88;;;1.50;;
3718;SDS011;1875;52.492;6.860;2024-02-23T12:59:39;4.75;;;1.70;;
3718;SDS011;1875;52.492;6.860;2024-02-23T13:02:07;4.20;;;1.20;;
3718;SDS011;1875;52.492;6.860;2024-02-23T13:04:35;3.30;;;1.33;;
3718;SDS011;1875;52.492;6.860;2024-02-23T13:07:03;6.75;;;2.22;;
3718;SDS011;1875;52.492;6.860;2024-02-23T13:09:31;5.97;;;1.58;;
3718;SDS011;1875;52.492;6.860;2024-02-23T13:11:59;6.97;;;3.60;;
3718;SDS011;1875;52.492;6.860;2024-02-23T13:14:28;7.78;;;1.90;;
3718;SDS011;1875;52.492;6.860;2024-02-23T13:16:56;8.90;;;2.33;;
3718;SDS011;1875;52.492;6.860;2024-02-23T13:19:24;5.63;;;1.67;;
3718;SDS011;1875;52.492;6.860;2024-02-23T13:21:52;6.85;;;1.83;;
3718;SDS011;1875;52.492;6.860;2024-02-23T13:24:20;5.57;;;1.55;;
3718;SDS011;1875;52.492;6.860;2024-02-23T13:26:48;7.25;;;2.30;;
3718;SDS011;1875;52.492;6.860;2024-02-23T13:29:16;6.43;;;1.80;;
3718;SDS011;1875;52.492;6.860;2024-02-23T13:31:45;4.85;;;1.60;;
3718;SDS011;1875;52.492;6.860;2024-02-23T13:34:13;6.65;;;2.05;;
3718;SDS011;1875;52.492;6.860;2024-02-23T13:36:43;6.15;;;1.73;;
3718;SDS011;1875;52.492;6.860;2024-02-23T13:39:11;7.53;;;1.75;;
3718;SDS011;1875;52.492;6.860;2024-02-23T13:41:39;4.50;;;1.27;;
3718;SDS011;1875;52.492;6.860;2024-02-23T13:44:07;7.13;;;2.35;;
3718;SDS011;1875;52.492;6.860;2024-02-23T13:46:36;7.82;;;2.22;;
3718;SDS011;1875;52.492;6.860;2024-02-23T13:49:07;2.50;;;1.13;;
3718;SDS011;1875;52.492;6.860;2024-02-23T13:51:36;3.95;;;1.40;;
3718;SDS011;1875;52.492;6.860;2024-02-23T13:54:04;5.40;;;2.15;;
3718;SDS011;1875;52.492;6.860;2024-02-23T13:56:32;4.95;;;1.92;;
3718;SDS011;1875;52.492;6.860;2024-02-23T13:59:00;5.32;;;1.38;;
3718;SDS011;1875;52.492;6.860;2024-02-23T14:01:28;5.30;;;1.55;;
3718;SDS011;1875;52.492;6.860;2024-02-23T14:03:56;4.88;;;1.42;;
3718;SDS011;1875;52.492;6.860;2024-02-23T14:06:26;4.68;;;1.30;;
3718;SDS011;1875;52.492;6.860;2024-02-23T14:08:53;7.07;;;1.35;;
3718;SDS011;1875;52.492;6.860;2024-02-23T14:11:21;5.22;;;1.55;;
3718;SDS011;1875;52.492;6.860;2024-02-23T14:13:49;6.28;;;1.25;;
3718;SDS011;1875;52.492;6.860;2024-02-23T14:16:17;5.15;;;1.80;;
3718;SDS011;1875;52.492;6.860;2024-02-23T14:18:45;3.72;;;1.33;;
3718;SDS011;1875;52.492;6.860;2024-02-23T14:21:14;5.40;;;3.00;;
3718;SDS011;1875;52.492;6.860;2024-02-23T14:23:42;4.63;;;1.80;;
3718;SDS011;1875;52.492;6.860;2024-02-23T14:26:10;2.92;;;1.80;;
3718;SDS011;1875;52.492;6.860;2024-02-23T14:28:39;4.15;;;2.75;;
3718;SDS011;1875;52.492;6.860;2024-02-23T14:31:07;5.85;;;2.70;;
3718;SDS011;1875;52.492;6.860;2024-02-23T14:33:35;4.38;;;2.80;;
3718;SDS011;1875;52.492;6.860;2024-02-23T14:36:03;6.68;;;2.35;;
3718;SDS011;1875;52.492;6.860;2024-02-23T14:38:31;4.25;;;1.38;;
3718;SDS011;1875;52.492;6.860;2024-02-23T14:41:00;7.57;;;1.67;;
3718;SDS011;1875;52.492;6.860;2024-02-23T14:43:28;10.10;;;1.80;;
3718;SDS011;1875;52.492;6.860;2024-02-23T14:45:57;6.47;;;1.60;;
3718;SDS011;1875;52.492;6.860;2024-02-23T14:48:25;3.47;;;1.67;;
3718;SDS011;1875;52.492;6.860;2024-02-23T14:50:53;5.78;;;2.08;;
3718;SDS011;1875;52.492;6.860;2024-02-23T14:53:21;4.57;;;1.77;;
3718;SDS011;1875;52.492;6.860;2024-02-23T14:55:48;7.03;;;1.33;;
3718;SDS011;1875;52.492;6.860;2024-02-23T14:58:18;4.38;;;2.22;;
3718;SDS011;1875;52.492;6.860;2024-02-23T15:00:45;4.90;;;1.60;;
3718;SDS011;1875;52.492;6.860;2024-02-23T15:03:14;7.35;;;1.45;;
3718;SDS011;1875;52.492;6.860;2024-02-23T15:05:42;6.38;;;1.80;;
3718;SDS011;1875;52.492;6.860;2024-02-23T15:08:10;6.07;;;1.90;;
3718;SDS011;1875;52.492;6.860;2024-02-23T15:10:38;8.77;;;1.83;;
3718;SDS011;1875;52.492;6.860;2024-02-23T15:13:07;4.10;;;1.90;;
3718;SDS011;1875;52.492;6.860;2024-02-23T15:15:36;6.53;;;1.92;;
3718;SDS011;1875;52.492;6.860;2024-02-23T15:18:07;4.63;;;1.85;;
3718;SDS011;1875;52.492;6.860;2024-02-23T15:20:35;6.70;;;2.55;;
3718;SDS011;1875;52.492;6.860;2024-02-23T15:23:03;4.40;;;1.70;;
3718;SDS011;1875;52.492;6.860;2024-02-23T15:25:31;2.90;;;1.40;;
3718;SDS011;1875;52.492;6.860;2024-02-23T15:28:05;6.15;;;1.20;;
3718;SDS011;1875;52.492;6.860;2024-02-23T15:30:33;4.35;;;2.20;;